createdAt,value
2022-12-11T00:01:19.765Z,61.91
2022-12-11T00:03:48.187Z,62.50
2022-12-11T00:06:17.783Z,63.04
2022-12-11T00:08:44.755Z,62.66
2022-12-11T00:11:14.602Z,61.71
2022-12-11T00:13:42.182Z,62.89
2022-12-11T00:16:10.206Z,61.25
2022-12-11T00:18:37.971Z,61.82
2022-12-11T00:21:07.109Z,58.27
2022-12-11T00:23:37.453Z,58.62
2022-12-11T00:26:10.014Z,59.28
2022-12-11T00:28:37.252Z,54.17
2022-12-11T00:31:08.864Z,55.58
2022-12-11T00:33:35.902Z,57.54
2022-12-11T00:36:03.053Z,56.93
2022-12-11T00:38:30.231Z,57.27
2022-12-11T00:41:01.013Z,54.29
2022-12-11T00:43:27.992Z,55.88
2022-12-11T00:45:54.994Z,53.32
2022-12-11T00:48:22.092Z,54.53
2022-12-11T00:50:49.117Z,54.15
2022-12-11T00:53:16.043Z,55.25
2022-12-11T00:55:44.478Z,53.02
2022-12-11T00:58:12.682Z,53.47
2022-12-11T01:00:40.387Z,52.10
2022-12-11T01:03:08.075Z,53.12
2022-12-11T01:05:35.382Z,53.55
2022-12-11T01:08:02.506Z,54.97
2022-12-11T01:10:29.756Z,53.64
2022-12-11T01:12:57.911Z,53.90
2022-12-11T01:15:28.018Z,54.92
2022-12-11T01:17:55.693Z,55.12
2022-12-11T01:20:24.152Z,53.09
2022-12-11T01:22:59.270Z,52.58
2022-12-11T01:25:28.009Z,52.09
2022-12-11T01:27:56.191Z,52.46
2022-12-11T01:30:24.151Z,52.09
2022-12-11T01:32:51.163Z,51.08
2022-12-11T01:35:18.469Z,53.03
2022-12-11T01:37:45.751Z,50.64
2022-12-11T01:40:15.715Z,51.22
2022-12-11T01:42:43.022Z,51.14
2022-12-11T01:45:23.048Z,51.54
2022-12-11T01:48:00.177Z,50.23
2022-12-11T01:50:29.386Z,50.01
2022-12-11T01:52:56.487Z,50.16
2022-12-11T01:55:23.647Z,50.01
2022-12-11T01:57:52.727Z,49.63
2022-12-11T02:00:20.929Z,49.49
2022-12-11T02:02:47.886Z,48.57
2022-12-11T02:05:15.249Z,48.93
2022-12-11T02:07:49.043Z,49.46
2022-12-11T02:10:16.588Z,49.08
2022-12-11T02:12:48.807Z,50.63
2022-12-11T02:15:26.617Z,49.66
2022-12-11T02:18:19.546Z,49.53
2022-12-11T02:21:02.809Z,49.90
2022-12-11T02:23:58.811Z,48.46
2022-12-11T02:26:55.920Z,47.77
2022-12-11T02:29:49.709Z,48.36
2022-12-11T02:32:31.725Z,48.11
2022-12-11T02:35:17.427Z,47.83
2022-12-11T02:37:47.009Z,49.43
2022-12-11T02:40:17.358Z,49.55
2022-12-11T02:42:47.853Z,47.61
2022-12-11T02:45:16.807Z,47.85
2022-12-11T02:47:47.447Z,46.33
2022-12-11T02:50:18.567Z,46.91
2022-12-11T02:52:47.797Z,48.08
2022-12-11T02:55:16.907Z,47.58
2022-12-11T02:58:05.490Z,46.54
2022-12-11T03:00:32.697Z,48.21
2022-12-11T03:02:59.857Z,47.82
2022-12-11T03:05:28.148Z,47.19
2022-12-11T03:07:55.084Z,47.74
2022-12-11T03:10:22.357Z,47.68
2022-12-11T03:12:53.923Z,48.39
2022-12-11T03:15:25.307Z,48.50
2022-12-11T03:18:40.529Z,48.43
2022-12-11T03:21:17.950Z,47.90
2022-12-11T03:24:11.930Z,48.02
2022-12-11T03:26:46.928Z,48.40
2022-12-11T03:29:32.195Z,48.59
2022-12-11T03:32:23.237Z,48.15
2022-12-11T03:34:59.787Z,48.36
2022-12-11T03:37:31.356Z,48.46
2022-12-11T03:40:03.390Z,47.73
2022-12-11T03:42:32.077Z,47.41
2022-12-11T03:45:00.509Z,47.92
2022-12-11T03:47:29.127Z,47.48
2022-12-11T03:49:58.517Z,47.92
2022-12-11T03:52:28.178Z,48.44
2022-12-11T03:54:59.666Z,47.99
2022-12-11T03:57:31.781Z,48.25
2022-12-11T03:59:59.128Z,48.28
2022-12-11T04:02:26.137Z,48.12
2022-12-11T04:04:53.086Z,48.06
2022-12-11T04:07:20.054Z,48.69
2022-12-11T04:09:47.007Z,48.49
2022-12-11T04:12:13.966Z,49.46
2022-12-11T04:14:59.388Z,49.05
2022-12-11T04:17:45.338Z,48.51
2022-12-11T04:20:31.198Z,48.24
2022-12-11T04:23:16.907Z,49.04
2022-12-11T04:25:43.919Z,49.19
2022-12-11T04:28:10.871Z,49.29
2022-12-11T04:30:37.828Z,49.05
2022-12-11T04:33:05.210Z,49.05
2022-12-11T04:35:32.122Z,48.92
2022-12-11T04:37:59.174Z,48.71
2022-12-11T04:40:26.128Z,48.87
2022-12-11T04:42:53.092Z,48.64
2022-12-11T04:45:20.112Z,48.70
2022-12-11T04:47:47.206Z,49.74
2022-12-11T04:50:15.866Z,50.29
2022-12-11T04:52:43.169Z,48.97
2022-12-11T04:55:11.535Z,49.31
2022-12-11T04:57:39.314Z,49.23
2022-12-11T05:00:09.215Z,49.47
2022-12-11T05:02:37.781Z,49.21
2022-12-11T05:05:06.146Z,48.50
2022-12-11T05:07:33.378Z,48.59
2022-12-11T05:10:00.346Z,48.39
2022-12-11T05:12:27.246Z,48.45
2022-12-11T05:14:55.567Z,48.78
2022-12-11T05:17:23.495Z,49.15
2022-12-11T05:19:51.899Z,48.68
2022-12-11T05:22:19.417Z,48.81
2022-12-11T05:24:46.485Z,48.60
2022-12-11T05:27:13.611Z,48.97
2022-12-11T05:29:40.811Z,48.73
2022-12-11T05:32:08.213Z,47.30
2022-12-11T05:34:35.455Z,46.62
2022-12-11T05:37:02.732Z,47.70
2022-12-11T05:39:30.331Z,46.47
2022-12-11T05:41:57.221Z,47.16
2022-12-11T05:44:24.410Z,46.44
2022-12-11T05:46:51.792Z,46.41
2022-12-11T05:49:20.122Z,46.96
2022-12-11T05:51:48.011Z,46.27
2022-12-11T05:54:15.531Z,46.18
2022-12-11T05:56:42.771Z,46.75
2022-12-11T05:59:10.609Z,45.85
2022-12-11T06:01:42.891Z,46.68
2022-12-11T06:04:12.653Z,46.49
2022-12-11T06:06:40.815Z,46.36
2022-12-11T06:09:08.344Z,44.50
2022-12-11T06:11:36.411Z,44.41
2022-12-11T06:14:04.337Z,45.33
2022-12-11T06:16:32.454Z,44.76
2022-12-11T06:18:59.811Z,44.69
2022-12-11T06:21:32.734Z,44.83
2022-12-11T06:24:02.295Z,44.92
2022-12-11T06:26:30.054Z,45.14
2022-12-11T06:28:57.215Z,45.88
2022-12-11T06:31:24.533Z,45.38
2022-12-11T06:33:51.732Z,45.68
2022-12-11T06:36:20.940Z,43.52
2022-12-11T06:38:48.938Z,43.74
2022-12-11T06:41:16.889Z,44.21
2022-12-11T06:43:44.170Z,43.72
2022-12-11T06:46:14.122Z,43.76
2022-12-11T06:48:42.570Z,44.38
2022-12-11T06:51:12.731Z,43.50
2022-12-11T06:53:40.890Z,43.34
2022-12-11T06:56:11.650Z,43.70
2022-12-11T06:58:39.811Z,43.33
2022-12-11T07:01:18.702Z,43.72
2022-12-11T07:03:46.531Z,43.17
2022-12-11T07:06:14.169Z,43.38
2022-12-11T07:08:42.170Z,43.86
2022-12-11T07:11:12.818Z,44.36
2022-12-11T07:13:42.304Z,45.19
2022-12-11T07:16:11.651Z,44.57
2022-12-11T07:18:40.534Z,43.94
2022-12-11T07:21:09.971Z,44.77
2022-12-11T07:23:37.170Z,43.48
2022-12-11T07:26:09.851Z,43.68
2022-12-11T07:28:37.569Z,43.74
2022-12-11T07:31:25.289Z,44.52
2022-12-11T07:34:05.450Z,42.82
2022-12-11T07:36:34.129Z,42.77
2022-12-11T07:39:01.851Z,42.75
2022-12-11T07:41:29.409Z,43.15
2022-12-11T07:43:56.770Z,42.81
2022-12-11T07:46:26.972Z,42.71
2022-12-11T07:48:54.575Z,42.73
2022-12-11T07:51:34.289Z,43.31
2022-12-11T07:54:06.977Z,42.87
2022-12-11T07:56:35.014Z,42.74
2022-12-11T07:59:04.333Z,42.96
2022-12-11T08:01:33.839Z,43.19
2022-12-11T08:04:01.091Z,43.20
2022-12-11T08:06:34.771Z,43.45
2022-12-11T08:09:04.176Z,43.18
2022-12-11T08:11:31.809Z,41.97
2022-12-11T08:14:00.012Z,41.25
2022-12-11T08:16:27.586Z,41.21
2022-12-11T08:18:55.131Z,40.96
2022-12-11T08:21:26.052Z,41.22
2022-12-11T08:23:54.491Z,41.75
2022-12-11T08:26:28.212Z,41.19
2022-12-11T08:28:56.340Z,40.83
2022-12-11T08:31:23.937Z,40.25
2022-12-11T08:33:51.654Z,40.56
2022-12-11T08:36:21.295Z,40.98
2022-12-11T08:38:50.131Z,40.11
2022-12-11T08:41:23.171Z,40.41
2022-12-11T08:43:55.185Z,40.04
2022-12-11T08:46:25.959Z,40.71
2022-12-11T08:48:54.615Z,41.28
2022-12-11T08:51:24.211Z,40.44
2022-12-11T08:53:52.250Z,39.82
2022-12-11T08:56:21.936Z,40.40
2022-12-11T08:58:49.289Z,40.06
2022-12-11T09:01:25.515Z,39.38
2022-12-11T09:03:54.539Z,40.66
2022-12-11T09:06:23.691Z,39.71
2022-12-11T09:08:53.433Z,39.80
2022-12-11T09:11:26.794Z,40.16
2022-12-11T09:13:55.052Z,39.68
2022-12-11T09:16:23.970Z,39.39
2022-12-11T09:18:52.809Z,39.60
2022-12-11T09:21:23.209Z,38.91
2022-12-11T09:23:53.858Z,38.46
2022-12-11T09:26:21.609Z,37.75
2022-12-11T09:28:49.252Z,38.29
2022-12-11T09:31:19.998Z,38.24
2022-12-11T09:33:47.252Z,38.64
2022-12-11T09:36:14.731Z,38.57
2022-12-11T09:38:44.289Z,38.54
2022-12-11T09:41:23.573Z,37.68
2022-12-11T09:44:13.665Z,38.04
2022-12-11T09:46:41.602Z,37.48
2022-12-11T09:49:44.265Z,37.82
2022-12-11T09:52:14.731Z,38.38
2022-12-11T09:54:49.570Z,37.81
2022-12-11T09:57:38.571Z,37.60
2022-12-11T10:00:14.375Z,37.57
2022-12-11T10:02:44.606Z,38.09
2022-12-11T10:05:29.570Z,37.88
2022-12-11T10:08:21.440Z,38.52
2022-12-11T10:11:03.490Z,37.56
2022-12-11T10:13:45.938Z,37.87
2022-12-11T10:16:21.498Z,37.38
2022-12-11T10:18:49.491Z,37.51
2022-12-11T10:21:18.972Z,37.92
2022-12-11T10:24:01.010Z,36.89
2022-12-11T10:26:29.770Z,37.60
2022-12-11T10:29:00.890Z,37.52
2022-12-11T10:31:49.889Z,37.18
2022-12-11T10:34:42.862Z,37.03
2022-12-11T10:37:10.214Z,36.98
2022-12-11T10:39:37.732Z,37.59
2022-12-11T10:42:18.855Z,37.13
2022-12-11T10:45:18.250Z,36.98
2022-12-11T10:47:46.211Z,37.17
2022-12-11T10:50:25.264Z,37.12
2022-12-11T10:52:53.650Z,36.70
2022-12-11T10:55:26.019Z,36.66
2022-12-11T10:58:04.651Z,36.76
2022-12-11T11:00:38.769Z,36.76
2022-12-11T11:03:20.331Z,36.73
2022-12-11T11:05:49.559Z,36.73
2022-12-11T11:08:23.921Z,36.97
2022-12-11T11:10:52.451Z,36.85
2022-12-11T11:13:22.529Z,37.10
2022-12-11T11:15:51.663Z,37.05
2022-12-11T11:18:27.369Z,37.08
2022-12-11T11:20:55.217Z,37.19
2022-12-11T11:23:24.139Z,37.22
2022-12-11T11:25:58.050Z,35.97
2022-12-11T11:28:29.930Z,37.09
2022-12-11T11:31:15.191Z,36.19
2022-12-11T11:33:59.135Z,36.85
2022-12-11T11:36:28.890Z,37.00
2022-12-11T11:39:07.851Z,36.50
2022-12-11T11:41:35.048Z,36.50
2022-12-11T11:44:07.370Z,36.56
2022-12-11T11:46:40.869Z,35.92
2022-12-11T11:49:16.771Z,35.69
2022-12-11T11:51:49.453Z,35.53
2022-12-11T11:54:49.490Z,35.64
2022-12-11T11:57:29.734Z,34.71
2022-12-11T12:00:10.092Z,34.75
2022-12-11T12:13:49.223Z,35.77
2022-12-11T12:16:59.180Z,35.85
2022-12-11T12:19:51.734Z,36.10
2022-12-11T12:22:37.810Z,35.28
2022-12-11T12:25:20.170Z,34.54
2022-12-11T12:28:15.545Z,35.50
2022-12-11T12:31:05.698Z,35.79
2022-12-11T12:33:59.329Z,34.71
2022-12-11T12:36:53.935Z,34.74
2022-12-11T12:39:42.209Z,34.69
2022-12-11T12:42:14.970Z,35.45
2022-12-11T12:45:11.581Z,35.40
2022-12-11T12:47:41.774Z,34.59
2022-12-11T12:50:16.775Z,34.57
2022-12-11T12:52:44.732Z,34.31
2022-12-11T12:55:23.196Z,34.68
2022-12-11T12:58:00.816Z,33.99
2022-12-11T13:00:33.015Z,34.86
2022-12-11T13:03:13.300Z,35.11
2022-12-11T13:05:44.969Z,34.68
2022-12-11T13:08:13.831Z,35.21
2022-12-11T13:10:43.413Z,35.13
2022-12-11T13:13:33.611Z,35.22
2022-12-11T13:16:15.886Z,35.00
2022-12-11T13:18:45.609Z,34.83
2022-12-11T13:21:30.290Z,35.43
2022-12-11T13:24:20.491Z,35.85
2022-12-11T13:26:49.850Z,35.79
2022-12-11T13:29:38.892Z,35.11
2022-12-11T13:32:18.413Z,35.24
2022-12-11T13:34:53.330Z,35.82
2022-12-11T13:37:38.689Z,35.55
2022-12-11T13:40:14.611Z,35.79
2022-12-11T13:42:55.930Z,36.03
2022-12-11T13:45:40.359Z,35.76
2022-12-11T13:48:23.259Z,35.46
2022-12-11T13:50:52.691Z,35.36
2022-12-11T13:53:21.650Z,35.66
2022-12-11T13:56:05.531Z,35.37
2022-12-11T13:58:40.851Z,35.79
2022-12-11T14:01:13.164Z,36.13
2022-12-11T14:03:56.217Z,35.59
2022-12-11T14:06:25.538Z,36.03
2022-12-11T14:08:55.730Z,36.14
2022-12-11T14:11:30.332Z,36.79
2022-12-11T14:14:03.771Z,36.53
2022-12-11T14:16:31.619Z,37.02
2022-12-11T14:19:08.929Z,37.08
2022-12-11T14:21:37.130Z,37.67
2022-12-11T14:24:06.784Z,37.72
2022-12-11T14:26:38.295Z,37.70
2022-12-11T14:29:06.692Z,37.70
2022-12-11T14:31:40.017Z,38.67
2022-12-11T14:34:14.170Z,38.50
2022-12-11T14:36:42.889Z,38.91
2022-12-11T14:39:42.189Z,39.00
2022-12-11T14:42:20.732Z,39.30
2022-12-11T14:44:57.050Z,39.53
2022-12-11T14:47:41.618Z,39.73
2022-12-11T14:50:33.014Z,40.06
2022-12-11T14:53:10.658Z,40.21
2022-12-11T14:55:39.059Z,40.80
2022-12-11T14:58:12.452Z,40.72
2022-12-11T15:00:39.572Z,40.95
2022-12-11T15:03:12.772Z,41.19
2022-12-11T15:05:53.971Z,41.29
2022-12-11T15:08:26.778Z,42.21
2022-12-11T15:11:10.774Z,42.31
2022-12-11T15:14:06.810Z,42.56
2022-12-11T15:16:37.636Z,42.72
2022-12-11T15:19:05.019Z,42.64
2022-12-11T15:21:37.250Z,43.46
2022-12-11T15:24:07.291Z,43.16
2022-12-11T15:26:40.211Z,43.41
2022-12-11T15:29:26.053Z,43.98
2022-12-11T15:32:18.976Z,44.09
2022-12-11T15:34:55.858Z,44.63
2022-12-11T15:37:26.258Z,45.27
2022-12-11T15:39:55.293Z,44.63
2022-12-11T15:42:25.253Z,44.83
2022-12-11T15:44:53.572Z,44.94
2022-12-11T15:47:27.541Z,44.45
2022-12-11T15:49:58.533Z,45.01
2022-12-11T15:52:25.970Z,44.64
2022-12-11T15:54:53.130Z,44.74
2022-12-11T15:57:23.329Z,44.63
2022-12-11T15:59:53.010Z,44.82
2022-12-11T16:02:20.418Z,45.30
2022-12-11T16:04:47.772Z,45.63
2022-12-11T16:07:26.171Z,45.74
2022-12-11T16:09:53.971Z,45.41
2022-12-11T16:12:21.215Z,45.83
2022-12-11T16:14:48.490Z,46.28
2022-12-11T16:17:16.331Z,46.67
2022-12-11T16:19:44.653Z,46.34
2022-12-11T16:22:13.093Z,46.85
2022-12-11T16:24:41.091Z,47.21
2022-12-11T16:27:12.335Z,46.89
2022-12-11T16:29:41.690Z,46.88
2022-12-11T16:32:09.370Z,46.52
2022-12-11T16:34:37.697Z,46.37
2022-12-11T16:37:08.215Z,47.02
2022-12-11T16:39:37.616Z,47.87
2022-12-11T16:42:06.091Z,48.66
2022-12-11T16:44:33.504Z,48.12
2022-12-11T16:47:00.811Z,50.69
2022-12-11T16:49:27.973Z,49.79
2022-12-11T16:51:55.253Z,50.76
2022-12-11T16:54:22.494Z,50.44
2022-12-11T16:56:49.747Z,50.32
2022-12-11T16:59:17.265Z,49.99
2022-12-11T17:01:56.735Z,50.15
2022-12-11T17:04:29.222Z,50.05
2022-12-11T17:06:56.640Z,49.80
2022-12-11T17:09:23.746Z,50.20
2022-12-11T17:11:53.772Z,50.35
2022-12-11T17:14:20.956Z,50.62
2022-12-11T17:16:48.541Z,50.19
2022-12-11T17:19:16.727Z,50.05
2022-12-11T17:21:48.398Z,50.13
2022-12-11T17:24:18.239Z,50.20
2022-12-11T17:26:45.086Z,50.41
2022-12-11T17:29:13.412Z,50.73
2022-12-11T17:31:41.349Z,50.23
2022-12-11T17:34:08.468Z,50.21
2022-12-11T17:36:36.266Z,50.56
2022-12-11T17:41:38.936Z,49.52
2022-12-11T17:44:06.067Z,49.17
2022-12-11T17:46:33.357Z,49.71
2022-12-11T17:49:04.148Z,50.00
2022-12-11T17:51:31.702Z,50.14
2022-12-11T17:53:59.019Z,49.86
2022-12-11T17:56:26.534Z,50.13
2022-12-11T17:58:53.816Z,49.87
2022-12-11T18:01:22.085Z,50.60
2022-12-11T18:03:49.396Z,50.97
2022-12-11T18:06:18.926Z,50.79
2022-12-11T18:08:47.135Z,51.06
2022-12-11T18:11:16.506Z,50.72
2022-12-11T18:13:45.091Z,50.75
2022-12-11T18:16:25.150Z,50.76
2022-12-11T18:18:53.173Z,50.91
2022-12-11T18:21:23.331Z,49.75
2022-12-11T18:23:51.256Z,48.66
2022-12-11T18:26:20.028Z,48.17
2022-12-11T18:28:47.827Z,48.48
2022-12-11T18:31:15.700Z,47.04
2022-12-11T18:33:44.693Z,47.79
2022-12-11T18:36:13.591Z,47.09
2022-12-11T18:38:42.334Z,47.17
2022-12-11T18:41:11.573Z,47.18
2022-12-11T18:43:40.144Z,46.85
2022-12-11T18:46:13.049Z,47.41
2022-12-11T18:48:41.307Z,48.11
2022-12-11T18:51:10.623Z,49.32
2022-12-11T18:53:39.693Z,50.34
2022-12-11T18:56:15.981Z,50.27
2022-12-11T18:58:43.655Z,51.38
2022-12-11T19:01:18.549Z,52.81
2022-12-11T19:03:46.410Z,51.54
2022-12-11T19:06:20.895Z,51.52
2022-12-11T19:08:49.173Z,52.08
2022-12-11T19:11:19.613Z,52.02
2022-12-11T19:13:46.932Z,52.27
2022-12-11T19:16:22.483Z,53.31
2022-12-11T19:18:50.691Z,51.90
2022-12-11T19:21:18.941Z,50.93
2022-12-11T19:23:46.376Z,51.53
2022-12-11T19:26:16.891Z,52.03
2022-12-11T19:28:44.852Z,53.24
2022-12-11T19:31:22.586Z,52.61
2022-12-11T19:33:50.627Z,53.46
2022-12-11T19:36:21.097Z,52.97
2022-12-11T19:38:48.853Z,54.05
2022-12-11T19:41:18.996Z,54.53
2022-12-11T19:43:46.275Z,54.51
2022-12-11T19:46:14.341Z,55.17
2022-12-11T19:48:42.060Z,55.10
2022-12-11T19:51:13.255Z,55.25
2022-12-11T19:53:41.774Z,54.89
2022-12-11T19:56:09.740Z,55.85
2022-12-11T19:58:36.772Z,54.17
2022-12-11T20:01:04.490Z,53.54
2022-12-11T20:03:32.200Z,53.41
2022-12-11T20:06:01.707Z,53.30
2022-12-11T20:08:44.304Z,53.34
2022-12-11T20:11:18.015Z,54.04
2022-12-11T20:13:47.195Z,54.55
2022-12-11T20:16:15.764Z,54.76
2022-12-11T20:18:42.965Z,54.38
2022-12-11T20:21:13.938Z,54.69
2022-12-11T20:23:42.427Z,54.61
2022-12-11T20:26:15.775Z,54.29
2022-12-11T20:28:43.584Z,54.52
2022-12-11T20:31:19.945Z,54.56
2022-12-11T20:33:49.549Z,53.79
2022-12-11T20:36:18.779Z,54.19
2022-12-11T20:38:46.771Z,54.95
2022-12-11T20:41:16.339Z,55.10
2022-12-11T20:43:43.899Z,55.09
2022-12-11T20:46:12.957Z,54.70
2022-12-11T20:48:42.772Z,54.82
2022-12-11T20:51:12.778Z,55.03
2022-12-11T20:53:40.491Z,54.38
2022-12-11T20:56:13.656Z,55.15
2022-12-11T20:58:41.373Z,55.07
2022-12-11T21:01:17.869Z,55.10
2022-12-11T21:03:45.652Z,55.49
2022-12-11T21:06:31.646Z,55.65
2022-12-11T21:09:00.738Z,56.13
2022-12-11T21:11:28.781Z,54.82
2022-12-11T21:13:56.652Z,55.10
2022-12-11T21:16:24.461Z,55.35
2022-12-11T21:18:52.295Z,55.54
2022-12-11T21:21:20.519Z,55.37
2022-12-11T21:23:47.682Z,55.46
2022-12-11T21:26:15.662Z,56.43
2022-12-11T21:28:44.254Z,57.08
2022-12-11T21:31:18.234Z,56.71
2022-12-11T21:33:45.889Z,56.90
2022-12-11T21:36:14.893Z,57.10
2022-12-11T21:38:43.899Z,57.19
2022-12-11T21:41:15.931Z,56.01
2022-12-11T21:44:14.650Z,57.40
2022-12-11T21:46:33.548Z,58.01
2022-12-11T21:49:00.809Z,58.19
2022-12-11T21:51:36.533Z,58.09
2022-12-11T21:54:10.614Z,58.69
2022-12-11T21:56:37.970Z,58.74
2022-12-11T21:59:05.534Z,59.36
2022-12-11T22:01:37.491Z,59.14
2022-12-11T22:04:05.977Z,59.02
2022-12-11T22:06:33.729Z,59.13
2022-12-11T22:09:01.463Z,59.11
2022-12-11T22:11:31.298Z,58.79
2022-12-11T22:13:59.307Z,58.75
2022-12-11T22:16:26.602Z,58.22
2022-12-11T22:18:53.982Z,59.25
2022-12-11T22:21:21.371Z,58.99
2022-12-11T22:23:48.771Z,59.37
2022-12-11T22:26:20.173Z,59.53
2022-12-11T22:28:47.810Z,60.12
2022-12-11T22:31:17.462Z,59.73
2022-12-11T22:33:44.730Z,59.50
2022-12-11T22:36:12.411Z,59.05
2022-12-11T22:38:40.132Z,59.27
2022-12-11T22:41:31.940Z,59.28
2022-12-11T22:43:59.810Z,59.02
2022-12-11T22:46:29.540Z,59.59
2022-12-11T22:48:57.851Z,60.23
2022-12-11T22:51:25.294Z,60.87
2022-12-11T22:53:52.579Z,60.99
2022-12-11T22:56:19.947Z,60.60
2022-12-11T22:58:47.419Z,60.76
2022-12-11T23:01:21.011Z,61.24
2022-12-11T23:03:49.060Z,60.60
2022-12-11T23:06:17.614Z,61.67
2022-12-11T23:08:45.378Z,61.42
2022-12-11T23:11:21.972Z,61.00
2022-12-11T23:13:49.212Z,61.20
2022-12-11T23:16:16.907Z,61.18
2022-12-11T23:18:44.210Z,61.60
2022-12-11T23:21:12.776Z,61.49
2022-12-11T23:23:40.130Z,61.65
2022-12-11T23:26:10.617Z,61.62
2022-12-11T23:28:38.651Z,61.76
2022-12-11T23:31:06.037Z,61.37
2022-12-11T23:33:33.491Z,61.80
2022-12-11T23:36:00.813Z,62.20
2022-12-11T23:38:28.174Z,61.80
2022-12-11T23:40:55.725Z,61.79
2022-12-11T23:43:23.690Z,62.10
2022-12-11T23:45:50.880Z,61.84
2022-12-11T23:48:18.889Z,61.36
2022-12-11T23:50:46.271Z,61.27
2022-12-11T23:53:13.617Z,62.27
2022-12-11T23:55:43.454Z,62.11
2022-12-11T23:58:11.113Z,62.42
